createdAt,value
2023-03-29T00:00:38.330Z,1861.00
2023-03-29T00:01:38.354Z,1859.00
2023-03-29T00:02:38.493Z,1855.00
2023-03-29T00:03:38.481Z,1853.00
2023-03-29T00:04:38.420Z,1854.00
2023-03-29T00:05:39.030Z,1854.00
2023-03-29T00:06:38.457Z,1854.00
2023-03-29T00:07:38.466Z,1856.00
2023-03-29T00:08:38.489Z,1852.00
2023-03-29T00:09:38.569Z,1853.00
2023-03-29T00:10:38.524Z,1845.00
2023-03-29T00:11:38.562Z,1844.00
2023-03-29T00:12:38.576Z,1840.00
2023-03-29T00:13:38.590Z,1838.00
2023-03-29T00:14:38.639Z,1836.00
2023-03-29T00:15:38.655Z,1834.00
2023-03-29T00:16:38.727Z,1831.00
2023-03-29T00:17:38.725Z,1836.00
2023-03-29T00:18:38.742Z,1835.00
2023-03-29T00:19:38.773Z,1835.00
2023-03-29T00:20:38.787Z,1831.00
2023-03-29T00:21:38.811Z,1828.00
2023-03-29T00:22:38.821Z,1823.00
2023-03-29T00:23:38.851Z,1817.00
2023-03-29T00:24:38.937Z,1814.00
2023-03-29T00:25:38.897Z,1815.00
2023-03-29T00:26:38.939Z,1814.00
2023-03-29T00:27:38.962Z,1811.00
2023-03-29T00:28:38.991Z,1806.00
2023-03-29T00:29:39.009Z,1803.00
2023-03-29T00:30:39.056Z,1804.00
2023-03-29T00:31:39.136Z,1803.00
2023-03-29T00:32:39.144Z,1802.00
2023-03-29T00:33:39.201Z,1794.00
2023-03-29T00:34:39.278Z,1795.00
2023-03-29T00:35:39.211Z,1795.00
2023-03-29T00:36:39.220Z,1793.00
2023-03-29T00:37:39.263Z,1794.00
2023-03-29T00:38:39.271Z,1797.00
2023-03-29T00:39:39.305Z,1795.00
2023-03-29T00:40:39.345Z,1798.00
2023-03-29T00:41:39.375Z,1798.00
2023-03-29T00:42:39.422Z,1794.00
2023-03-29T00:43:39.423Z,1791.00
2023-03-29T00:44:39.462Z,1788.00
2023-03-29T00:45:39.490Z,1787.00
2023-03-29T00:46:39.535Z,1788.00
2023-03-29T00:47:39.672Z,1786.00
2023-03-29T00:48:39.646Z,1786.00
2023-03-29T00:49:39.615Z,1784.00
2023-03-29T00:50:40.077Z,1781.00
2023-03-29T00:51:39.649Z,1778.00
2023-03-29T00:52:39.688Z,1775.00
2023-03-29T00:53:39.718Z,1771.00
2023-03-29T00:54:39.753Z,1771.00
2023-03-29T00:55:39.779Z,1773.00
2023-03-29T00:56:40.023Z,1772.00
2023-03-29T00:57:39.852Z,1768.00
2023-03-29T00:58:39.870Z,1762.00
2023-03-29T00:59:39.898Z,1762.00
2023-03-29T01:00:39.931Z,1760.00
2023-03-29T01:01:40.029Z,1757.00
2023-03-29T01:02:40.130Z,1756.00
2023-03-29T01:03:40.103Z,1761.00
2023-03-29T01:04:40.064Z,1758.00
2023-03-29T01:05:40.084Z,1758.00
2023-03-29T01:06:40.142Z,1753.00
2023-03-29T01:07:40.149Z,1752.00
2023-03-29T01:08:40.228Z,1755.00
2023-03-29T01:09:40.220Z,1757.00
2023-03-29T01:10:40.245Z,1754.00
2023-03-29T01:11:40.291Z,1756.00
2023-03-29T01:12:40.308Z,1754.00
2023-03-29T01:13:40.332Z,1752.00
2023-03-29T01:14:40.376Z,1753.00
2023-03-29T01:15:40.419Z,1750.00
2023-03-29T01:16:40.487Z,1747.00
2023-03-29T01:17:40.556Z,1742.00
2023-03-29T01:18:40.519Z,1740.00
2023-03-29T01:19:40.563Z,1739.00
2023-03-29T01:20:40.584Z,1739.00
2023-03-29T01:21:40.627Z,1739.00
2023-03-29T01:22:40.654Z,1738.00
2023-03-29T01:23:40.699Z,1737.00
2023-03-29T01:24:40.724Z,1739.00
2023-03-29T01:25:40.762Z,1740.00
2023-03-29T01:26:40.804Z,1738.00
2023-03-29T01:27:40.843Z,1736.00
2023-03-29T01:28:40.879Z,1735.00
2023-03-29T01:29:40.913Z,1735.00
2023-03-29T01:30:41.571Z,1731.00
2023-03-29T01:31:41.079Z,1728.00
2023-03-29T01:32:41.114Z,1729.00
2023-03-29T01:33:41.063Z,1723.00
2023-03-29T01:34:41.177Z,1720.00
2023-03-29T01:35:41.167Z,1718.00
2023-03-29T01:36:41.173Z,1719.00
2023-03-29T01:37:41.233Z,1718.00
2023-03-29T01:38:41.265Z,1718.00
2023-03-29T01:39:41.375Z,1720.00
2023-03-29T01:40:41.424Z,1723.00
2023-03-29T01:41:41.361Z,1721.00
2023-03-29T01:42:41.396Z,1718.00
2023-03-29T01:43:41.447Z,1715.00
2023-03-29T01:44:41.502Z,1712.00
2023-03-29T01:45:41.561Z,1708.00
2023-03-29T01:46:41.559Z,1707.00
2023-03-29T01:47:41.618Z,1708.00
2023-03-29T01:48:41.655Z,1710.00
2023-03-29T01:49:41.676Z,1709.00
2023-03-29T01:50:41.725Z,1708.00
2023-03-29T01:51:41.768Z,1700.00
2023-03-29T01:52:41.822Z,1701.00
2023-03-29T01:53:41.863Z,1701.00
2023-03-29T01:54:41.906Z,1703.00
2023-03-29T01:55:41.964Z,1701.00
2023-03-29T01:56:42.021Z,1696.00
2023-03-29T01:57:42.044Z,1695.00
2023-03-29T01:58:42.080Z,1690.00
2023-03-29T01:59:42.124Z,1685.00
2023-03-29T02:00:42.181Z,1684.00
2023-03-29T02:01:42.286Z,1678.00
2023-03-29T02:02:42.723Z,1674.00
2023-03-29T02:03:42.504Z,1671.00
2023-03-29T02:04:42.335Z,1666.00
2023-03-29T02:05:42.416Z,1664.00
2023-03-29T02:06:42.440Z,1661.00
2023-03-29T02:07:42.536Z,1662.00
2023-03-29T02:08:42.509Z,1661.00
2023-03-29T02:09:42.559Z,1660.00
2023-03-29T02:10:42.697Z,1660.00
2023-03-29T02:11:42.683Z,1657.00
2023-03-29T02:12:42.694Z,1655.00
2023-03-29T02:13:42.764Z,1651.00
2023-03-29T02:14:42.768Z,1645.00
2023-03-29T02:15:42.884Z,1644.00
2023-03-29T02:16:42.872Z,1645.00
2023-03-29T02:17:42.921Z,1644.00
2023-03-29T02:18:42.952Z,1644.00
2023-03-29T02:19:42.994Z,1643.00
2023-03-29T02:20:43.040Z,1644.00
2023-03-29T02:21:43.075Z,1645.00
2023-03-29T02:22:43.115Z,1642.00
2023-03-29T02:23:43.177Z,1641.00
2023-03-29T02:24:43.209Z,1637.00
2023-03-29T02:25:43.347Z,1636.00
2023-03-29T02:26:43.312Z,1635.00
2023-03-29T02:27:43.352Z,1637.00
2023-03-29T02:28:43.381Z,1638.00
2023-03-29T02:29:43.428Z,1636.00
2023-03-29T02:30:43.488Z,1633.00
2023-03-29T02:31:43.611Z,1630.00
2023-03-29T02:32:43.610Z,1629.00
2023-03-29T02:33:43.611Z,1633.00
2023-03-29T02:34:43.668Z,1633.00
2023-03-29T02:35:43.708Z,1631.00
2023-03-29T02:36:44.135Z,1630.00
2023-03-29T02:37:43.772Z,1629.00
2023-03-29T02:38:43.814Z,1624.00
2023-03-29T02:39:43.926Z,1619.00
2023-03-29T02:40:43.919Z,1619.00
2023-03-29T02:41:43.951Z,1620.00
2023-03-29T02:42:44.012Z,1616.00
2023-03-29T02:43:44.047Z,1610.00
2023-03-29T02:44:44.128Z,1608.00
2023-03-29T02:45:44.154Z,1602.00
2023-03-29T02:46:44.274Z,1596.00
2023-03-29T02:47:44.339Z,1594.00
2023-03-29T02:48:44.607Z,1595.00
2023-03-29T02:49:44.384Z,1593.00
2023-03-29T02:50:44.433Z,1597.00
2023-03-29T02:51:44.499Z,1596.00
2023-03-29T02:52:44.528Z,1596.00
2023-03-29T02:53:44.685Z,1600.00
2023-03-29T02:54:44.643Z,1603.00
2023-03-29T02:55:44.702Z,1606.00
2023-03-29T02:56:44.846Z,1605.00
2023-03-29T02:57:44.817Z,1605.00
2023-03-29T02:58:44.859Z,1604.00
2023-03-29T02:59:44.921Z,1602.00
2023-03-29T03:00:44.972Z,1604.00
2023-03-29T03:01:45.137Z,1604.00
2023-03-29T03:02:45.125Z,1602.00
2023-03-29T03:03:46.197Z,1597.00
2023-03-29T03:04:45.188Z,1594.00
2023-03-29T03:05:46.127Z,1592.00
2023-03-29T03:06:45.296Z,1590.00
2023-03-29T03:07:46.165Z,1584.00
2023-03-29T03:08:45.462Z,1578.00
2023-03-29T03:09:45.457Z,1573.00
2023-03-29T03:10:45.498Z,1574.00
2023-03-29T03:11:45.579Z,1573.00
2023-03-29T03:12:45.616Z,1571.00
2023-03-29T03:13:45.675Z,1570.00
2023-03-29T03:14:46.612Z,1569.00
2023-03-29T03:15:45.762Z,1564.00
2023-03-29T03:16:45.906Z,1562.00
2023-03-29T03:17:45.872Z,1561.00
2023-03-29T03:18:45.972Z,1564.00
2023-03-29T03:19:45.967Z,1562.00
2023-03-29T03:20:46.028Z,1561.00
2023-03-29T03:21:46.068Z,1564.00
2023-03-29T03:22:46.125Z,1560.00
2023-03-29T03:23:46.179Z,1558.00
2023-03-29T03:24:46.228Z,1555.00
2023-03-29T03:25:46.289Z,1554.00
2023-03-29T03:26:46.394Z,1553.00
2023-03-29T03:27:46.416Z,1554.00
2023-03-29T03:28:46.469Z,1557.00
2023-03-29T03:29:46.509Z,1557.00
2023-03-29T03:30:46.565Z,1555.00
2023-03-29T03:31:47.642Z,1556.00
2023-03-29T03:32:46.701Z,1552.00
2023-03-29T03:33:46.743Z,1546.00
2023-03-29T03:34:46.785Z,1542.00
2023-03-29T03:35:46.872Z,1545.00
2023-03-29T03:36:47.124Z,1549.00
2023-03-29T03:37:46.973Z,1549.00
2023-03-29T03:38:47.034Z,1544.00
2023-03-29T03:39:47.081Z,1541.00
2023-03-29T03:40:47.142Z,1538.00
2023-03-29T03:41:47.288Z,1540.00
2023-03-29T03:42:47.247Z,1542.00
2023-03-29T03:43:47.334Z,1543.00
2023-03-29T03:44:47.372Z,1543.00
2023-03-29T03:45:47.504Z,1540.00
2023-03-29T03:46:47.489Z,1540.00
2023-03-29T03:47:47.605Z,1535.00
2023-03-29T03:48:47.617Z,1532.00
2023-03-29T03:49:47.683Z,1531.00
2023-03-29T03:50:47.738Z,1528.00
2023-03-29T03:51:47.800Z,1528.00
2023-03-29T03:52:47.867Z,1527.00
2023-03-29T03:53:47.929Z,1522.00
2023-03-29T03:54:47.979Z,1519.00
2023-03-29T03:55:48.043Z,1517.00
2023-03-29T03:56:48.121Z,1516.00
2023-03-29T03:57:48.169Z,1513.00
2023-03-29T03:58:48.230Z,1514.00
2023-03-29T03:59:48.298Z,1515.00
2023-03-29T04:00:48.351Z,1511.00
2023-03-29T04:01:48.431Z,1506.00
2023-03-29T04:02:48.680Z,1503.00
2023-03-29T04:03:48.623Z,1503.00
2023-03-29T04:04:48.729Z,1505.00
2023-03-29T04:05:48.678Z,1505.00
2023-03-29T04:06:48.724Z,1501.00
2023-03-29T04:07:48.878Z,1501.00
2023-03-29T04:08:48.917Z,1503.00
2023-03-29T04:09:48.918Z,1503.00
2023-03-29T04:10:48.981Z,1502.00
2023-03-29T04:11:49.040Z,1502.00
2023-03-29T04:12:49.143Z,1499.00
2023-03-29T04:13:49.166Z,1497.00
2023-03-29T04:14:49.235Z,1496.00
2023-03-29T04:15:49.319Z,1492.00
2023-03-29T04:16:49.353Z,1492.00
2023-03-29T04:17:49.502Z,1491.00
2023-03-29T04:18:49.498Z,1493.00
2023-03-29T04:19:49.534Z,1494.00
2023-03-29T04:20:49.594Z,1490.00
2023-03-29T04:21:49.659Z,1490.00
2023-03-29T04:22:49.718Z,1491.00
2023-03-29T04:23:49.831Z,1490.00
2023-03-29T04:24:49.844Z,1488.00
2023-03-29T04:25:49.913Z,1484.00
2023-03-29T04:26:49.986Z,1482.00
2023-03-29T04:27:50.053Z,1477.00
2023-03-29T04:28:50.106Z,1471.00
2023-03-29T04:29:50.158Z,1467.00
2023-03-29T04:30:50.243Z,1470.00
2023-03-29T04:31:50.311Z,1469.00
2023-03-29T04:32:50.482Z,1468.00
2023-03-29T04:33:50.363Z,1468.00
2023-03-29T04:34:50.435Z,1469.00
2023-03-29T04:35:50.633Z,1468.00
2023-03-29T04:36:50.573Z,1465.00
2023-03-29T04:37:50.611Z,1464.00
2023-03-29T04:38:51.634Z,1463.00
2023-03-29T04:39:50.737Z,1465.00
2023-03-29T04:40:50.806Z,1463.00
2023-03-29T04:41:50.870Z,1463.00
2023-03-29T04:42:50.936Z,1464.00
2023-03-29T04:43:51.016Z,1467.00
2023-03-29T04:44:51.093Z,1468.00
2023-03-29T04:45:51.140Z,1464.00
2023-03-29T04:46:51.256Z,1463.00
2023-03-29T04:47:51.338Z,1461.00
2023-03-29T04:48:51.339Z,1458.00
2023-03-29T04:49:51.408Z,1457.00
2023-03-29T04:50:51.480Z,1455.00
2023-03-29T04:51:51.549Z,1454.00
2023-03-29T04:52:51.621Z,1450.00
2023-03-29T04:53:52.156Z,1449.00
2023-03-29T04:54:51.771Z,1451.00
2023-03-29T04:55:51.834Z,1451.00
2023-03-29T04:56:51.935Z,1451.00
2023-03-29T04:57:52.048Z,1451.00
2023-03-29T04:58:52.126Z,1450.00
2023-03-29T04:59:52.184Z,1449.00
2023-03-29T05:00:52.220Z,1449.00
2023-03-29T05:01:52.341Z,1453.00
2023-03-29T05:02:52.404Z,1453.00
2023-03-29T05:03:52.492Z,1452.00
2023-03-29T05:04:52.547Z,1448.00
2023-03-29T05:05:52.579Z,1448.00
2023-03-29T05:06:52.660Z,1445.00
2023-03-29T05:07:52.728Z,1444.00
2023-03-29T05:08:52.804Z,1438.00
2023-03-29T05:09:52.843Z,1437.00
2023-03-29T05:10:52.908Z,1437.00
2023-03-29T05:11:52.987Z,1436.00
2023-03-29T05:12:53.043Z,1434.00
2023-03-29T05:13:53.180Z,1434.00
2023-03-29T05:14:53.190Z,1435.00
2023-03-29T05:15:53.329Z,1434.00
2023-03-29T05:16:53.328Z,1435.00
2023-03-29T05:17:53.451Z,1432.00
2023-03-29T05:18:53.483Z,1432.00
2023-03-29T05:19:53.554Z,1432.00
2023-03-29T05:20:53.609Z,1237.00
2023-03-29T05:21:53.667Z,1140.00
2023-03-29T05:22:53.736Z,1277.00
2023-03-29T05:23:53.779Z,1301.00
2023-03-29T05:24:54.185Z,1338.00
2023-03-29T05:25:53.912Z,1347.00
2023-03-29T05:26:54.659Z,1352.00
2023-03-29T05:27:54.021Z,1384.00
2023-03-29T05:28:54.061Z,1487.00
2023-03-29T05:29:54.109Z,1485.00
2023-03-29T05:30:54.177Z,1501.00
2023-03-29T05:31:54.285Z,1608.00
2023-03-29T05:32:54.323Z,1637.00
2023-03-29T05:33:54.336Z,1635.00
2023-03-29T05:34:54.367Z,1658.00
2023-03-29T05:35:54.488Z,1688.00
2023-03-29T05:36:54.411Z,1709.00
2023-03-29T05:37:54.452Z,1731.00
2023-03-29T05:38:54.481Z,1792.00
2023-03-29T05:39:54.470Z,1813.00
2023-03-29T05:40:55.456Z,1832.00
2023-03-29T05:41:55.514Z,1886.00
2023-03-29T05:42:54.501Z,1901.00
2023-03-29T05:43:54.461Z,1923.00
2023-03-29T05:44:54.653Z,1998.00
2023-03-29T05:45:54.482Z,2002.00
2023-03-29T05:46:54.566Z,2022.00
2023-03-29T05:47:54.535Z,2038.00
2023-03-29T05:48:54.443Z,2089.00
2023-03-29T05:49:54.445Z,2104.00
2023-03-29T05:50:54.443Z,2119.00
2023-03-29T05:51:54.430Z,2150.00
2023-03-29T05:52:54.419Z,2164.00
2023-03-29T05:53:54.418Z,2179.00
2023-03-29T05:54:54.414Z,2197.00
2023-03-29T05:55:54.408Z,2219.00
2023-03-29T05:56:54.437Z,2243.00
2023-03-29T05:57:54.403Z,2266.00
2023-03-29T05:58:55.075Z,2311.00
2023-03-29T05:59:54.386Z,2342.00
2023-03-29T06:00:54.372Z,2366.00
2023-03-29T06:01:54.407Z,2384.00
2023-03-29T06:02:54.485Z,2400.00
2023-03-29T06:03:55.374Z,2434.00
2023-03-29T06:04:54.485Z,2463.00
2023-03-29T06:05:54.515Z,2481.00
2023-03-29T06:06:54.474Z,2510.00
2023-03-29T06:07:54.525Z,2550.00
2023-03-29T06:08:54.583Z,2574.00
2023-03-29T06:09:54.686Z,2586.00
2023-03-29T06:10:54.702Z,2606.00
2023-03-29T06:11:54.677Z,2630.00
2023-03-29T06:12:54.721Z,2650.00
2023-03-29T06:13:54.746Z,2668.00
2023-03-29T06:14:54.771Z,2685.00
2023-03-29T06:15:54.795Z,2730.00
2023-03-29T06:16:54.882Z,2752.00
2023-03-29T06:17:54.874Z,2769.00
2023-03-29T06:18:54.867Z,2779.00
2023-03-29T06:19:54.890Z,2792.00
2023-03-29T06:20:54.927Z,2812.00
2023-03-29T06:21:55.188Z,2830.00
2023-03-29T06:22:55.010Z,2882.00
2023-03-29T06:23:55.013Z,1544.00
2023-03-29T06:24:55.053Z,1214.00
2023-03-29T06:25:55.178Z,1503.00
2023-03-29T06:26:55.254Z,1624.00
2023-03-29T06:27:55.346Z,1641.00
2023-03-29T06:28:55.413Z,1664.00
2023-03-29T06:29:55.488Z,1741.00
2023-03-29T06:30:55.559Z,1789.00
2023-03-29T06:31:55.550Z,1807.00
2023-03-29T06:32:55.682Z,1892.00
2023-03-29T06:33:55.701Z,1893.00
2023-03-29T06:34:55.758Z,1880.00
2023-03-29T06:35:57.724Z,1904.00
2023-03-29T06:36:55.893Z,1983.00
2023-03-29T06:37:55.936Z,2003.00
2023-03-29T06:38:55.964Z,2035.00
2023-03-29T06:39:55.984Z,2067.00
2023-03-29T06:40:55.997Z,2089.00
2023-03-29T06:41:55.998Z,2125.00
2023-03-29T06:42:56.033Z,2155.00
2023-03-29T06:43:56.102Z,2180.00
2023-03-29T06:44:56.267Z,2245.00
2023-03-29T06:45:56.375Z,2255.00
2023-03-29T06:46:56.283Z,2261.00
2023-03-29T06:47:56.395Z,2282.00
2023-03-29T06:48:56.372Z,2301.00
2023-03-29T06:49:56.421Z,2371.00
2023-03-29T06:50:56.463Z,2386.00
2023-03-29T06:51:56.560Z,2400.00
2023-03-29T06:52:56.541Z,2414.00
2023-03-29T06:53:56.570Z,2439.00
2023-03-29T06:54:56.732Z,2458.00
2023-03-29T06:55:56.640Z,2494.00
2023-03-29T06:56:56.679Z,2541.00
2023-03-29T06:57:56.682Z,2561.00
2023-03-29T06:58:56.864Z,2583.00
2023-03-29T06:59:56.723Z,2600.00
2023-03-29T07:00:56.726Z,2618.00
2023-03-29T07:01:56.924Z,2641.00
2023-03-29T07:02:57.234Z,2663.00
2023-03-29T07:03:56.794Z,2721.00
2023-03-29T07:04:56.802Z,2731.00
2023-03-29T07:05:56.817Z,2738.00
2023-03-29T07:06:56.802Z,2759.00
2023-03-29T07:07:56.991Z,2796.00
2023-03-29T07:08:56.821Z,2815.00
2023-03-29T07:09:56.859Z,2842.00
2023-03-29T07:10:56.834Z,2861.00
2023-03-29T07:11:56.904Z,2881.00
2023-03-29T07:12:56.871Z,2901.00
2023-03-29T07:13:56.863Z,2921.00
2023-03-29T07:14:56.879Z,2987.00
2023-03-29T07:15:56.923Z,3017.00
2023-03-29T07:16:57.173Z,3014.00
2023-03-29T07:17:56.975Z,3021.00
2023-03-29T07:18:57.707Z,3013.00
2023-03-29T07:19:56.956Z,3002.00
2023-03-29T07:20:56.966Z,2983.00
2023-03-29T07:21:57.026Z,2972.00
2023-03-29T07:22:57.001Z,2964.00
2023-03-29T07:23:57.027Z,2958.00
2023-03-29T07:24:57.065Z,2955.00
2023-03-29T07:25:57.101Z,2946.00
2023-03-29T07:27:04.243Z,2938.00
2023-03-29T07:27:58.140Z,2934.00
2023-03-29T07:28:57.110Z,2937.00
2023-03-29T07:29:57.084Z,2931.00
2023-03-29T07:30:57.079Z,2929.00
2023-03-29T07:31:57.066Z,2928.00
2023-03-29T07:32:57.120Z,2926.00
2023-03-29T07:33:57.100Z,2923.00
2023-03-29T07:34:57.043Z,2918.00
2023-03-29T07:35:58.081Z,2909.00
2023-03-29T07:36:57.033Z,2905.00
2023-03-29T07:37:57.041Z,2903.00
2023-03-29T07:38:57.040Z,2904.00
2023-03-29T07:39:57.022Z,2899.00
2023-03-29T07:40:57.019Z,2895.00
2023-03-29T07:41:57.025Z,2889.00
2023-03-29T07:42:57.026Z,2881.00
2023-03-29T07:43:57.007Z,2870.00
2023-03-29T07:44:57.062Z,2865.00
2023-03-29T07:45:57.085Z,2856.00
2023-03-29T07:46:57.109Z,2851.00
2023-03-29T07:47:57.287Z,2847.00
2023-03-29T07:48:57.193Z,2846.00
2023-03-29T07:49:57.233Z,2835.00
2023-03-29T07:50:57.317Z,2832.00
2023-03-29T07:51:57.302Z,2823.00
2023-03-29T07:52:57.359Z,2818.00
2023-03-29T07:53:57.385Z,2814.00
2023-03-29T07:54:57.409Z,2811.00
2023-03-29T07:55:57.429Z,2807.00
2023-03-29T07:56:57.478Z,2799.00
2023-03-29T07:57:57.439Z,2787.00
2023-03-29T07:58:57.436Z,2775.00
2023-03-29T07:59:57.443Z,2764.00
2023-03-29T08:00:57.575Z,2762.00
2023-03-29T08:01:57.490Z,2752.00
2023-03-29T08:02:58.275Z,2745.00
2023-03-29T08:03:57.630Z,2736.00
2023-03-29T08:04:57.493Z,2720.00
2023-03-29T08:05:57.484Z,2714.00
2023-03-29T08:06:57.473Z,2714.00
2023-03-29T08:07:57.720Z,2714.00
2023-03-29T08:08:57.499Z,2709.00
2023-03-29T08:09:57.507Z,2708.00
2023-03-29T08:10:57.499Z,2702.00
2023-03-29T08:11:57.553Z,2700.00
2023-03-29T08:12:57.514Z,2702.00
2023-03-29T08:13:57.504Z,2695.00
2023-03-29T08:14:57.548Z,2684.00
2023-03-29T08:15:57.521Z,2683.00
2023-03-29T08:16:57.590Z,2680.00
2023-03-29T08:17:57.564Z,2677.00
2023-03-29T08:18:57.539Z,2673.00
2023-03-29T08:19:57.553Z,2670.00
2023-03-29T08:20:57.546Z,2662.00
2023-03-29T08:21:57.555Z,2655.00
2023-03-29T08:22:57.570Z,2643.00
2023-03-29T08:23:57.579Z,2627.00
2023-03-29T08:24:57.618Z,2610.00
2023-03-29T08:25:57.659Z,2599.00
2023-03-29T08:26:57.620Z,2594.00
2023-03-29T08:27:57.650Z,2595.00
2023-03-29T08:28:57.654Z,2594.00
2023-03-29T08:29:57.679Z,2594.00
2023-03-29T08:30:57.722Z,2595.00
2023-03-29T08:31:57.707Z,2593.00
2023-03-29T08:32:57.738Z,2596.00
2023-03-29T08:33:57.742Z,2595.00
2023-03-29T08:34:57.761Z,2594.00
2023-03-29T08:35:57.854Z,2589.00
2023-03-29T08:36:57.803Z,2586.00
2023-03-29T08:37:57.809Z,2586.00
2023-03-29T08:38:57.842Z,2587.00
2023-03-29T08:39:58.734Z,2580.00
2023-03-29T08:40:57.862Z,2576.00
2023-03-29T08:41:57.886Z,2576.00
2023-03-29T08:42:57.897Z,2572.00
2023-03-29T08:43:57.937Z,2568.00
2023-03-29T08:44:58.035Z,2566.00
2023-03-29T08:45:57.981Z,2563.00
2023-03-29T08:46:58.870Z,2556.00
2023-03-29T08:47:58.028Z,2548.00
2023-03-29T08:48:58.020Z,2538.00
2023-03-29T08:49:58.039Z,2530.00
2023-03-29T08:50:58.066Z,2524.00
2023-03-29T08:51:58.092Z,2517.00
2023-03-29T08:52:58.108Z,2507.00
2023-03-29T08:53:58.127Z,2506.00
2023-03-29T08:54:58.137Z,2504.00
2023-03-29T08:55:58.212Z,2496.00
2023-03-29T08:56:58.210Z,2497.00
2023-03-29T08:57:58.288Z,2495.00
2023-03-29T08:58:58.229Z,2494.00
2023-03-29T08:59:58.276Z,2489.00
2023-03-29T09:00:58.279Z,2489.00
2023-03-29T09:01:58.317Z,2486.00
2023-03-29T09:02:58.465Z,2480.00
2023-03-29T09:03:58.379Z,2476.00
2023-03-29T09:04:58.356Z,2475.00
2023-03-29T09:05:58.745Z,2466.00
2023-03-29T09:06:58.412Z,2457.00
2023-03-29T09:07:58.429Z,2455.00
2023-03-29T09:08:58.461Z,2453.00
2023-03-29T09:09:58.494Z,2450.00
2023-03-29T09:10:58.500Z,2446.00
2023-03-29T09:11:58.543Z,2442.00
2023-03-29T09:12:58.801Z,2440.00
2023-03-29T09:13:58.562Z,2432.00
2023-03-29T09:14:58.584Z,2428.00
2023-03-29T09:15:58.636Z,2430.00
2023-03-29T09:16:58.622Z,2429.00
2023-03-29T09:17:58.688Z,2428.00
2023-03-29T09:18:58.689Z,2427.00
2023-03-29T09:19:58.683Z,2428.00
2023-03-29T09:20:58.833Z,2425.00
2023-03-29T09:21:58.725Z,2422.00
2023-03-29T09:22:58.767Z,2419.00
2023-03-29T09:23:58.779Z,2416.00
2023-03-29T09:24:58.803Z,2413.00
2023-03-29T09:25:59.708Z,2404.00
2023-03-29T09:26:58.849Z,2401.00
2023-03-29T09:27:58.879Z,2391.00
2023-03-29T09:28:58.918Z,2386.00
2023-03-29T09:29:58.930Z,2390.00
2023-03-29T09:30:59.257Z,2386.00
2023-03-29T09:31:58.987Z,2381.00
2023-03-29T09:32:59.078Z,2376.00
2023-03-29T09:33:59.023Z,2371.00
2023-03-29T09:34:59.762Z,2369.00
2023-03-29T09:35:59.107Z,2366.00
2023-03-29T09:36:59.100Z,2366.00
2023-03-29T09:37:59.119Z,2366.00
2023-03-29T09:38:59.162Z,2366.00
2023-03-29T09:39:59.173Z,2363.00
2023-03-29T09:40:59.251Z,2364.00
2023-03-29T09:41:59.225Z,2360.00
2023-03-29T09:42:59.253Z,2357.00
2023-03-29T09:43:59.289Z,2355.00
2023-03-29T09:44:59.311Z,2357.00
2023-03-29T09:45:59.385Z,2356.00
2023-03-29T09:46:59.383Z,2349.00
2023-03-29T09:47:59.429Z,2347.00
2023-03-29T09:48:59.441Z,2342.00
2023-03-29T09:49:59.468Z,2340.00
2023-03-29T09:50:59.545Z,2337.00
2023-03-29T09:51:59.531Z,2337.00
2023-03-29T09:52:59.570Z,2335.00
2023-03-29T09:53:59.603Z,2336.00
2023-03-29T09:54:59.638Z,2331.00
2023-03-29T09:55:59.672Z,2328.00
2023-03-29T09:56:59.757Z,2320.00
2023-03-29T09:57:59.734Z,2314.00
2023-03-29T09:59:00.260Z,2313.00
2023-03-29T09:59:59.799Z,2313.00
2023-03-29T10:00:59.989Z,2314.00
2023-03-29T10:02:00.755Z,2309.00
2023-03-29T10:03:00.020Z,2306.00
2023-03-29T10:04:00.115Z,2304.00
2023-03-29T10:04:59.965Z,2299.00
2023-03-29T10:06:00.007Z,2295.00
2023-03-29T10:07:00.060Z,2294.00
2023-03-29T10:08:00.121Z,2294.00
2023-03-29T10:09:00.135Z,2292.00
2023-03-29T10:10:00.200Z,2291.00
2023-03-29T10:11:00.411Z,2287.00
2023-03-29T10:12:00.212Z,2282.00
2023-03-29T10:13:00.253Z,2282.00
2023-03-29T10:14:00.303Z,2282.00
2023-03-29T10:15:00.356Z,2277.00
2023-03-29T10:16:01.284Z,2271.00
2023-03-29T10:17:00.461Z,2268.00
2023-03-29T10:18:00.501Z,2268.00
2023-03-29T10:19:00.776Z,2268.00
2023-03-29T10:20:03.076Z,2265.00
2023-03-29T10:21:01.492Z,2263.00
2023-03-29T10:22:00.554Z,2263.00
2023-03-29T10:23:00.546Z,2263.00
2023-03-29T10:24:00.776Z,2263.00
2023-03-29T10:25:00.566Z,2259.00
2023-03-29T10:26:00.560Z,2260.00
2023-03-29T10:27:00.559Z,2261.00
2023-03-29T10:28:00.628Z,2256.00
2023-03-29T10:29:00.586Z,2252.00
2023-03-29T10:30:00.566Z,2249.00
2023-03-29T10:31:00.891Z,2244.00
2023-03-29T10:32:00.638Z,2237.00
2023-03-29T10:33:00.639Z,2239.00
2023-03-29T10:34:00.601Z,2233.00
2023-03-29T10:35:00.629Z,2228.00
2023-03-29T10:36:00.657Z,2223.00
2023-03-29T10:37:00.615Z,2222.00
2023-03-29T10:38:00.617Z,2224.00
2023-03-29T10:39:01.660Z,2222.00
2023-03-29T10:40:00.654Z,2213.00
2023-03-29T10:41:00.889Z,2213.00
2023-03-29T10:42:00.653Z,2208.00
2023-03-29T10:43:00.664Z,2210.00
2023-03-29T10:44:00.663Z,2205.00
2023-03-29T10:45:01.152Z,2206.00
2023-03-29T10:46:00.709Z,2204.00
2023-03-29T10:47:00.680Z,2201.00
2023-03-29T10:48:00.782Z,2200.00
2023-03-29T10:49:00.720Z,2199.00
2023-03-29T10:50:00.757Z,2199.00
2023-03-29T10:51:01.131Z,2194.00
2023-03-29T10:52:00.789Z,2191.00
2023-03-29T10:53:00.821Z,2192.00
2023-03-29T10:54:00.857Z,2191.00
2023-03-29T10:55:00.899Z,2186.00
2023-03-29T10:56:00.923Z,2183.00
2023-03-29T10:57:01.000Z,2179.00
2023-03-29T10:58:00.998Z,2176.00
2023-03-29T10:59:01.032Z,2168.00
2023-03-29T11:00:01.175Z,2165.00
2023-03-29T11:01:01.268Z,2166.00
2023-03-29T11:02:01.193Z,2163.00
2023-03-29T11:03:01.248Z,2162.00
2023-03-29T11:04:01.326Z,2166.00
2023-03-29T11:05:01.255Z,2163.00
2023-03-29T11:06:01.309Z,2163.00
2023-03-29T11:07:01.326Z,2165.00
2023-03-29T11:08:01.369Z,2166.00
2023-03-29T11:09:01.406Z,2165.00
2023-03-29T11:10:01.484Z,2161.00
2023-03-29T11:11:01.739Z,2157.00
2023-03-29T11:12:15.051Z,2155.00
2023-03-29T11:13:02.539Z,2152.00
2023-03-29T11:14:01.545Z,2146.00
2023-03-29T11:15:01.621Z,2144.00
2023-03-29T11:16:01.618Z,2144.00
2023-03-29T11:17:01.566Z,2142.00
2023-03-29T11:18:01.632Z,2140.00
2023-03-29T11:19:01.575Z,2135.00
2023-03-29T11:20:03.703Z,2132.00
2023-03-29T11:21:01.745Z,2132.00
2023-03-29T11:22:01.618Z,2133.00
2023-03-29T11:23:01.735Z,2130.00
2023-03-29T11:24:01.637Z,2129.00
2023-03-29T11:25:01.669Z,2129.00
2023-03-29T11:26:01.665Z,2124.00
2023-03-29T11:27:01.673Z,2124.00
2023-03-29T11:28:01.730Z,2124.00
2023-03-29T11:29:01.695Z,2124.00
2023-03-29T11:30:01.915Z,2122.00
2023-03-29T11:31:02.222Z,2124.00
2023-03-29T11:32:01.804Z,2121.00
2023-03-29T11:33:01.891Z,2114.00
2023-03-29T11:34:01.820Z,2105.00
2023-03-29T11:35:01.778Z,2100.00
2023-03-29T11:36:01.803Z,2099.00
2023-03-29T11:37:01.776Z,2096.00
2023-03-29T11:38:01.819Z,2094.00
2023-03-29T11:39:01.825Z,2090.00
2023-03-29T11:40:01.811Z,2090.00
2023-03-29T11:41:01.938Z,2087.00
2023-03-29T11:42:01.820Z,2089.00
2023-03-29T11:43:01.844Z,2088.00
2023-03-29T11:44:01.892Z,2083.00
2023-03-29T11:45:01.854Z,2078.00
2023-03-29T11:46:01.888Z,2071.00
2023-03-29T11:47:02.009Z,2068.00
2023-03-29T11:48:02.013Z,2067.00
2023-03-29T11:49:01.887Z,2064.00
2023-03-29T11:50:01.915Z,2059.00
2023-03-29T11:51:02.124Z,2054.00
2023-03-29T11:52:02.799Z,2052.00
2023-03-29T11:53:01.932Z,2053.00
2023-03-29T11:54:01.961Z,2050.00
2023-03-29T11:55:01.945Z,2050.00
2023-03-29T11:56:02.307Z,2048.00
2023-03-29T11:57:02.013Z,2043.00
2023-03-29T11:58:01.968Z,2039.00
2023-03-29T11:59:01.977Z,2040.00
2023-03-29T12:00:02.011Z,2035.00
2023-03-29T12:01:02.211Z,2028.00
2023-03-29T12:02:02.031Z,2024.00
2023-03-29T12:03:02.110Z,2016.00
2023-03-29T12:04:02.126Z,2009.00
2023-03-29T12:05:02.076Z,2007.00
2023-03-29T12:06:02.312Z,2008.00